Rechercher aéroport 
image banner adimage banner adimage banner ad
image banner ad

KEED - Needles

Situé à Needles, United States

ICAO - EED, IATA - EED

Données fournies par Airmate  

Information générale

Coordonnées: N34°45'59" W114°37'24"
Élévation : 983 feet MSL.
Variation magnétique : 14° East
Voir autres Aéroports à California

Données opérationnelles

Special qualification required
Heure actuelle UTC:
Heure actuelle locale:
Météo
METAR: KEED 300120Z AUTO 10016G27KT 10SM -TSRA FEW031 FEW065 FEW110 34/19 A2973 RMK AO2 PK WND 11031/0100 LTG DSNT E AND SE AND NW TSB14 P0000 T03440194
TAF: KEED 292343Z 3000/3024 19008KT P6SM BKN150 TEMPO 3001/3005 16012G22KT TSRA SCT080CB BKN120 FM300600 02009KT P6SM VCTS SCT080CB BKN110 FM301700 15007KT P6SM BKN110 FM302100 23008KT P6SM BKN250
Voir NOTAMs / SUP AIP / TFR affectant cet aéroport [VIEW]
Fréquences de communication: [VIEW]

Pistes:

Identifiant RWYQFULongueur (ft)Largeur (ft)SurfaceLDA (ft)
0229°4235100ASPH
20209°4235100ASPH
11119°5005100ASPH
29299°5005100ASPH

Coordonnées de l'aéroport

Adresse: Needles United States

Vue satellite de KEED